Venezia / Tessera - Marco Polo Airport

Jump to: basic info | weather | frequencies | runways | comments

Related pages: nearby airports | nearby navaids | notams | map

Basic information (top)

Codes: VCE LIPZ
Location: lon 45.505299, lat 12.351900, elev 7 ft / 2 m msl
Status: large_airport
Scheduled airline service: yes
Links: Wikipedia Mobile

Weather (top)

Current conditions (rec'd 2014/04/24 00:20Z):

LIPZ 240020Z VRB03KT 9999 FEW070 16/11 Q1014

Airport forecast (rec'd 2014/04/23 00:25Z):

TAF LIPZ 232300Z 2400/2506 VRB05KT 9999 SCT040 
      TEMPO 2400/2406 4000 BR 
      TEMPO 2500/2506 2000 BR

Frequencies (top)

Verify before use: may be inaccurate or out of date.

APP: 118.9 MHz (APP)
ATIS: 122.225 MHz (ATIS)
GND: 121.7 MHz (GND)
TWR: 120.2 MHz (TWR)

Runways (top)

04L/22R: 9,121 x 148 ft (2,780 x 45 m) — paved — lighted — threshold 04L displaced 308 ft (94 m)

04R/22L: 10,827 x 148 ft (3,300 x 45 m) — paved — lighted

Latest comments (top)

flight cancellation dublin: Trying to find reason for today flight ... [read]

More... (top)

See also NOTAMs and nearby airports and navaids, or visit the Venezia / Tessera - Marco Polo Airport page at the main OurAirports website..